createdAt,value
2023-12-18T00:03:26.460Z,13.32
2023-12-18T00:15:59.334Z,15.48
2023-12-18T00:50:28.146Z,9.52
2023-12-18T00:53:23.057Z,15.88
2023-12-18T00:56:10.575Z,11.18
2023-12-18T00:59:10.582Z,11.55
2023-12-18T01:38:17.890Z,11.32
2023-12-18T03:00:51.390Z,17.70
2023-12-18T03:16:44.258Z,19.95
2023-12-18T03:24:27.934Z,20.80
2023-12-18T03:32:11.791Z,20.02
2023-12-18T03:40:59.739Z,19.00
2023-12-18T03:49:42.594Z,18.67
2023-12-18T04:01:44.838Z,18.40
2023-12-18T04:07:29.723Z,21.38
2023-12-18T04:12:27.906Z,15.77
2023-12-18T04:14:53.748Z,21.55
2023-12-18T04:17:21.129Z,21.88
2023-12-18T04:19:48.170Z,26.40
2023-12-18T04:22:15.557Z,20.23
2023-12-18T04:24:42.645Z,23.02
2023-12-18T04:27:10.414Z,20.02
2023-12-18T04:29:38.943Z,20.17
2023-12-18T04:32:06.841Z,18.23
2023-12-18T04:34:34.469Z,26.17
2023-12-18T04:37:03.485Z,27.23
2023-12-18T04:39:31.599Z,25.63
2023-12-18T04:41:58.639Z,24.60
2023-12-18T04:44:25.826Z,23.30
2023-12-18T04:46:53.030Z,26.40
2023-12-18T04:49:20.334Z,26.83
2023-12-18T04:51:48.463Z,23.60
2023-12-18T04:54:15.529Z,27.48
2023-12-18T04:56:42.545Z,34.47
2023-12-18T04:59:11.614Z,31.63
2023-12-18T05:01:53.947Z,20.20
2023-12-18T05:04:52.680Z,27.48
2023-12-18T05:11:34.207Z,23.15
2023-12-18T05:14:55.609Z,18.08
2023-12-18T05:17:58.943Z,25.05
2023-12-18T05:21:36.167Z,22.23
2023-12-18T05:24:23.430Z,27.83
2023-12-18T05:30:56.733Z,25.25
2023-12-18T05:41:30.350Z,18.75
2023-12-18T05:44:29.863Z,26.67
2023-12-18T05:52:28.810Z,25.23
2023-12-18T05:56:38.355Z,21.55
2023-12-18T05:59:05.255Z,20.27
2023-12-18T06:01:32.198Z,18.35
2023-12-18T06:03:59.216Z,26.13
2023-12-18T06:06:26.316Z,22.80
2023-12-18T06:08:53.451Z,22.15
2023-12-18T06:11:20.562Z,21.52
2023-12-18T06:13:47.625Z,21.67
2023-12-18T06:16:14.643Z,26.60
2023-12-18T06:18:41.894Z,21.15
2023-12-18T06:21:09.277Z,30.88
2023-12-18T06:23:36.314Z,26.05
2023-12-18T06:26:05.741Z,26.42
2023-12-18T06:28:32.661Z,23.83
2023-12-18T06:31:00.090Z,26.02
2023-12-18T06:33:27.607Z,26.00
2023-12-18T06:35:55.333Z,24.63
2023-12-18T06:38:22.283Z,24.10
2023-12-18T06:40:49.198Z,26.23
2023-12-18T06:43:17.819Z,21.23
2023-12-18T06:45:44.997Z,21.73
2023-12-18T06:48:12.145Z,23.50
2023-12-18T06:50:39.579Z,26.92
2023-12-18T06:53:06.862Z,27.13
2023-12-18T06:55:35.252Z,26.17
2023-12-18T06:58:02.194Z,22.98
2023-12-18T07:00:39.705Z,26.05
2023-12-18T07:03:08.689Z,27.67
2023-12-18T07:05:36.423Z,26.88
2023-12-18T07:08:03.666Z,25.15
2023-12-18T07:10:30.857Z,24.85
2023-12-18T07:12:57.979Z,23.13
2023-12-18T07:15:26.802Z,23.23
2023-12-18T07:17:54.184Z,24.35
2023-12-18T07:20:21.454Z,24.60
2023-12-18T07:22:48.371Z,22.35
2023-12-18T07:25:15.408Z,29.45
2023-12-18T07:27:42.557Z,23.77
2023-12-18T07:30:10.942Z,24.67
2023-12-18T07:32:38.307Z,25.95
2023-12-18T07:35:07.220Z,20.75
2023-12-18T07:37:34.246Z,32.83
2023-12-18T07:40:02.074Z,25.23
2023-12-18T07:42:29.053Z,31.88
2023-12-18T07:44:56.038Z,26.23
2023-12-18T07:47:23.201Z,22.27
2023-12-18T07:49:51.292Z,28.80
2023-12-18T07:52:18.939Z,25.10
2023-12-18T07:54:46.244Z,25.38
2023-12-18T07:57:13.423Z,32.10
2023-12-18T07:59:43.038Z,32.67
2023-12-18T08:02:10.664Z,28.58
2023-12-18T08:04:37.699Z,28.00
2023-12-18T08:07:06.698Z,26.13
2023-12-18T08:09:34.346Z,25.55
2023-12-18T08:12:01.763Z,27.65
2023-12-18T08:14:28.787Z,25.80
2023-12-18T08:16:56.188Z,27.00
2023-12-18T08:19:23.481Z,24.38
2023-12-18T08:21:50.814Z,20.83
2023-12-18T08:24:17.863Z,28.10
2023-12-18T08:26:49.204Z,24.58
2023-12-18T08:29:16.248Z,23.85
2023-12-18T08:31:43.816Z,20.92
2023-12-18T08:34:11.051Z,27.55
2023-12-18T08:36:38.171Z,24.63
2023-12-18T08:39:09.765Z,19.30
2023-12-18T08:41:38.430Z,21.60
2023-12-18T08:44:06.489Z,27.27
2023-12-18T08:46:33.718Z,22.00
2023-12-18T08:49:00.878Z,19.90
2023-12-18T08:51:28.440Z,23.77
2023-12-18T08:53:56.851Z,22.48
2023-12-18T08:56:26.513Z,27.17
2023-12-18T08:58:53.972Z,22.75
2023-12-18T09:01:21.298Z,24.85
2023-12-18T09:03:53.689Z,20.90
2023-12-18T09:06:22.187Z,26.45
2023-12-18T09:08:49.239Z,21.73
2023-12-18T09:11:16.240Z,21.13
2023-12-18T09:13:43.357Z,25.25
2023-12-18T09:16:10.374Z,25.67
2023-12-18T09:18:37.623Z,25.17
2023-12-18T09:21:05.124Z,17.48
2023-12-18T09:23:32.070Z,23.23
2023-12-18T09:25:59.051Z,19.60
2023-12-18T09:28:26.071Z,25.08
2023-12-18T09:30:53.196Z,23.75
2023-12-18T09:33:20.980Z,25.15
2023-12-18T09:35:48.289Z,26.75
2023-12-18T09:38:15.416Z,26.67
2023-12-18T09:40:45.868Z,20.85
2023-12-18T09:43:20.165Z,25.00
2023-12-18T09:45:49.021Z,26.60
2023-12-18T09:48:19.455Z,22.08
2023-12-18T09:50:47.405Z,26.02
2023-12-18T09:53:18.435Z,25.02
2023-12-18T09:55:46.902Z,26.55
2023-12-18T09:58:19.708Z,25.40
2023-12-18T10:03:18.059Z,23.10
2023-12-18T10:05:46.633Z,25.73
2023-12-18T10:08:14.008Z,24.05
2023-12-18T10:10:40.998Z,19.80
2023-12-18T10:13:09.897Z,29.05
2023-12-18T10:15:36.999Z,23.30
2023-12-18T10:18:04.551Z,27.00
2023-12-18T10:20:31.745Z,21.67
2023-12-18T10:23:01.654Z,23.52
2023-12-18T10:25:28.705Z,24.73
2023-12-18T10:27:57.276Z,25.90
2023-12-18T10:30:30.792Z,24.92
2023-12-18T10:33:00.702Z,24.90
2023-12-18T10:35:28.456Z,22.27
2023-12-18T10:37:56.678Z,23.45
2023-12-18T10:40:27.349Z,24.05
2023-12-18T10:43:27.016Z,23.75
2023-12-18T10:45:55.656Z,23.52
2023-12-18T10:48:25.744Z,27.00
2023-12-18T10:50:57.794Z,25.23
2023-12-18T10:53:25.868Z,22.90
2023-12-18T10:55:55.224Z,24.10
2023-12-18T10:58:23.094Z,26.30
2023-12-18T11:00:52.511Z,23.70
2023-12-18T11:03:20.812Z,21.10
2023-12-18T11:05:50.262Z,26.35
2023-12-18T11:08:17.557Z,20.30
2023-12-18T11:10:44.593Z,19.25
2023-12-18T11:13:35.460Z,19.90
2023-12-18T11:17:04.410Z,21.95
2023-12-18T11:20:07.740Z,22.40
2023-12-18T11:22:49.094Z,17.00
2023-12-18T11:25:18.385Z,21.30
2023-12-18T11:27:53.132Z,22.67
2023-12-18T11:30:30.967Z,19.98
2023-12-18T11:32:59.934Z,24.58
2023-12-18T11:35:31.917Z,20.45
2023-12-18T11:38:08.105Z,25.17
2023-12-18T11:40:39.878Z,20.67
2023-12-18T11:43:13.316Z,19.00
2023-12-18T11:46:14.868Z,20.58
2023-12-18T11:49:03.855Z,20.20
2023-12-18T11:51:34.367Z,21.77
2023-12-18T11:54:05.998Z,14.27
2023-12-18T11:56:41.514Z,20.10
2023-12-18T11:59:09.738Z,18.42
2023-12-18T12:01:40.292Z,20.48
2023-12-18T12:04:07.826Z,18.02
2023-12-18T12:06:35.501Z,26.27
2023-12-18T12:09:02.708Z,21.83
2023-12-18T12:11:31.695Z,22.40
2023-12-18T12:14:00.862Z,21.42
2023-12-18T12:16:38.015Z,22.23
2023-12-18T12:19:08.260Z,23.80
2023-12-18T12:21:45.241Z,22.75
2023-12-18T12:24:17.567Z,23.98
2023-12-18T12:26:47.972Z,21.35
2023-12-18T12:29:16.929Z,20.00
2023-12-18T12:31:53.611Z,22.60
2023-12-18T12:34:31.285Z,19.63
2023-12-18T12:37:05.902Z,15.60
2023-12-18T12:39:38.265Z,16.30
2023-12-18T12:42:11.400Z,15.75
2023-12-18T12:44:43.568Z,18.67
2023-12-18T12:47:13.795Z,19.30
2023-12-18T12:49:53.113Z,17.75
2023-12-18T12:52:22.734Z,20.05
2023-12-18T12:54:51.892Z,18.50
2023-12-18T12:57:21.891Z,21.25
2023-12-18T13:00:04.108Z,20.35
2023-12-18T13:02:39.879Z,19.80
2023-12-18T13:05:10.920Z,17.27
2023-12-18T13:07:42.486Z,23.92
2023-12-18T13:10:13.952Z,19.30
2023-12-18T13:12:49.401Z,20.42
2023-12-18T13:15:20.116Z,20.02
2023-12-18T13:18:03.957Z,17.95
2023-12-18T13:20:42.910Z,17.08
2023-12-18T13:23:16.597Z,16.90
2023-12-18T13:25:46.404Z,18.88
2023-12-18T13:28:26.551Z,22.15
2023-12-18T13:31:02.353Z,18.75
2023-12-18T13:33:32.249Z,19.98
2023-12-18T13:36:03.089Z,18.15
2023-12-18T13:38:35.587Z,18.23
2023-12-18T13:41:06.001Z,15.50
2023-12-18T13:43:36.603Z,16.92
2023-12-18T13:46:05.377Z,18.55
2023-12-18T13:48:34.306Z,19.42
2023-12-18T13:51:13.045Z,19.42
2023-12-18T13:53:42.282Z,26.05
2023-12-18T13:56:12.673Z,22.90
2023-12-18T13:58:44.273Z,18.60
2023-12-18T14:01:11.923Z,16.88
2023-12-18T14:03:39.019Z,22.30
2023-12-18T14:06:06.306Z,18.13
2023-12-18T14:08:33.311Z,14.57
2023-12-18T14:11:00.263Z,14.23
2023-12-18T14:13:27.578Z,14.57
2023-12-18T14:15:54.736Z,16.02
2023-12-18T14:18:21.970Z,20.30
2023-12-18T14:20:49.081Z,16.70
2023-12-18T14:23:16.092Z,14.68
2023-12-18T14:25:43.287Z,14.95
2023-12-18T14:28:10.389Z,16.02
2023-12-18T14:30:37.448Z,17.63
2023-12-18T14:33:04.935Z,18.65
2023-12-18T14:35:32.431Z,15.00
2023-12-18T14:37:59.414Z,17.92
2023-12-18T14:40:26.412Z,19.17
2023-12-18T14:42:53.488Z,20.73
2023-12-18T14:45:20.453Z,16.65
2023-12-18T14:47:47.519Z,23.75
2023-12-18T14:50:16.678Z,15.45
2023-12-18T14:52:44.324Z,14.13
2023-12-18T14:55:11.534Z,20.13
2023-12-18T14:57:40.201Z,19.27
2023-12-18T15:00:08.081Z,15.02
2023-12-18T15:02:35.055Z,21.10
2023-12-18T15:05:02.087Z,21.33
2023-12-18T15:07:29.186Z,16.23
2023-12-18T15:09:59.042Z,23.65
2023-12-18T15:12:26.055Z,23.60
2023-12-18T15:14:53.040Z,20.00
2023-12-18T15:17:19.935Z,19.42
2023-12-18T15:19:47.403Z,21.45
2023-12-18T15:22:14.394Z,20.08
2023-12-18T15:24:41.603Z,19.58
2023-12-18T15:27:09.312Z,19.10
2023-12-18T15:29:36.694Z,15.82
2023-12-18T15:32:04.127Z,44.90
2023-12-18T15:34:31.168Z,43.05
2023-12-18T15:36:59.500Z,76.13
2023-12-18T15:39:26.561Z,62.25
2023-12-18T15:41:53.689Z,43.85
2023-12-18T15:44:20.848Z,24.20
2023-12-18T15:46:48.023Z,25.60
2023-12-18T15:49:15.302Z,18.95
2023-12-18T15:51:42.810Z,19.17
2023-12-18T15:54:10.856Z,18.73
2023-12-18T15:56:37.792Z,24.25
2023-12-18T15:59:04.910Z,16.38
2023-12-18T16:01:31.941Z,17.00
2023-12-18T16:03:59.075Z,13.77
2023-12-18T16:06:26.234Z,17.60
2023-12-18T16:08:53.348Z,15.10
2023-12-18T16:11:20.562Z,11.65
2023-12-18T16:13:47.713Z,19.08
2023-12-18T16:16:14.802Z,22.73
2023-12-18T16:18:41.958Z,17.30
2023-12-18T16:21:08.982Z,18.20
2023-12-18T16:23:35.921Z,19.17
2023-12-18T16:26:03.097Z,19.35
2023-12-18T16:28:30.093Z,18.00
2023-12-18T16:30:58.230Z,18.25
2023-12-18T16:33:26.534Z,14.98
2023-12-18T16:35:56.404Z,15.03
2023-12-18T16:38:29.077Z,21.20
2023-12-18T16:40:58.472Z,23.02
2023-12-18T16:43:30.954Z,19.48
2023-12-18T16:46:05.057Z,17.00
2023-12-18T16:48:44.707Z,13.52
2023-12-18T16:51:30.880Z,18.08
2023-12-18T16:54:17.077Z,15.25
2023-12-18T16:56:50.866Z,12.15
2023-12-18T16:59:20.709Z,13.25
2023-12-18T17:01:51.968Z,14.57
2023-12-18T17:04:24.581Z,21.00
2023-12-18T17:06:57.795Z,17.40
2023-12-18T17:09:27.058Z,14.85
2023-12-18T17:11:55.821Z,13.68
2023-12-18T17:14:24.302Z,16.05
2023-12-18T17:17:05.577Z,19.73
2023-12-18T17:19:34.160Z,18.33
2023-12-18T17:22:03.399Z,16.98
2023-12-18T17:24:47.427Z,17.00
2023-12-18T17:27:16.930Z,17.48
2023-12-18T17:29:49.487Z,18.60
2023-12-18T17:32:28.500Z,19.75
2023-12-18T17:35:03.641Z,20.75
2023-12-18T17:37:36.426Z,19.05
2023-12-18T17:40:10.851Z,16.00
2023-12-18T17:42:41.337Z,14.07
2023-12-18T17:45:12.103Z,19.13
2023-12-18T17:47:42.832Z,16.02
2023-12-18T17:50:19.967Z,16.08
2023-12-18T17:52:49.801Z,13.88
2023-12-18T17:55:19.135Z,22.98
2023-12-18T17:57:47.950Z,16.38
2023-12-18T18:00:19.153Z,15.25
2023-12-18T18:02:54.423Z,16.88
2023-12-18T18:05:23.310Z,15.23
2023-12-18T18:07:51.687Z,19.67
2023-12-18T18:10:24.558Z,16.40
2023-12-18T18:13:00.026Z,20.02
2023-12-18T18:15:29.832Z,12.65
2023-12-18T18:17:59.042Z,9.93
2023-12-18T18:20:31.339Z,15.73
2023-12-18T18:22:59.983Z,15.80
2023-12-18T18:25:29.324Z,21.70
2023-12-18T18:27:58.824Z,15.88
2023-12-18T18:30:30.406Z,12.20
2023-12-18T18:33:03.243Z,19.73
2023-12-18T18:35:33.434Z,15.70
2023-12-18T18:38:11.002Z,16.75
2023-12-18T18:40:42.589Z,13.55
2023-12-18T18:43:25.121Z,15.80
2023-12-18T18:46:00.199Z,17.38
2023-12-18T18:48:31.415Z,18.88
2023-12-18T18:51:02.399Z,15.93
2023-12-18T18:53:44.688Z,24.17
2023-12-18T18:56:16.992Z,23.23
2023-12-18T18:58:46.530Z,18.85
2023-12-18T19:01:15.501Z,20.10
2023-12-18T19:03:44.800Z,22.20
2023-12-18T19:06:13.827Z,28.35
2023-12-18T19:08:42.592Z,25.00
2023-12-18T19:11:19.868Z,19.60
2023-12-18T19:13:54.260Z,18.02
2023-12-18T19:16:27.878Z,20.63
2023-12-18T19:19:05.559Z,17.00
2023-12-18T19:21:37.836Z,13.93
2023-12-18T19:24:16.788Z,20.67
2023-12-18T19:26:47.486Z,21.70
2023-12-18T19:29:16.673Z,24.63
2023-12-18T19:31:47.688Z,23.23
2023-12-18T19:34:17.082Z,16.77
2023-12-18T19:36:48.976Z,11.52
2023-12-18T19:39:20.363Z,13.10
2023-12-18T19:41:50.549Z,19.77
2023-12-18T19:44:22.049Z,13.32
2023-12-18T19:46:54.389Z,15.48
2023-12-18T19:49:53.899Z,16.02
2023-12-18T19:52:38.529Z,16.45
2023-12-18T19:58:38.579Z,28.73
2023-12-18T20:01:32.791Z,20.88
2023-12-18T20:04:20.296Z,14.32
2023-12-18T20:07:52.053Z,21.23
2023-12-18T20:10:40.291Z,17.63
2023-12-18T20:13:21.282Z,17.90
2023-12-18T20:16:06.860Z,21.13
2023-12-18T20:18:58.357Z,19.27
2023-12-18T20:21:45.137Z,20.35
2023-12-18T20:24:39.820Z,17.17
2023-12-18T20:27:24.242Z,18.52
2023-12-18T20:30:15.531Z,18.52
2023-12-18T20:32:58.818Z,16.00
2023-12-18T20:39:08.332Z,16.58
2023-12-18T20:41:39.736Z,17.52
2023-12-18T20:44:22.912Z,15.27
2023-12-18T20:46:59.402Z,17.42
2023-12-18T20:49:59.678Z,17.67
2023-12-18T20:53:05.461Z,22.15
2023-12-18T20:55:56.389Z,18.55
2023-12-18T20:58:38.470Z,22.70
2023-12-18T21:04:23.081Z,18.98
2023-12-18T21:07:18.371Z,17.17
2023-12-18T21:09:59.840Z,23.77
2023-12-18T21:12:30.470Z,21.92
2023-12-18T21:15:23.533Z,13.77
2023-12-18T21:18:04.293Z,13.10
2023-12-18T21:20:44.156Z,24.25
2023-12-18T21:23:16.118Z,14.98
2023-12-18T21:25:44.026Z,15.50
2023-12-18T21:36:27.677Z,14.68
2023-12-18T21:39:29.027Z,19.42
2023-12-18T21:42:34.774Z,16.50
2023-12-18T21:45:37.680Z,15.88
2023-12-18T21:48:15.780Z,22.38
2023-12-18T21:50:58.473Z,18.55
2023-12-18T21:53:54.096Z,18.17
2023-12-18T21:56:39.163Z,19.20
2023-12-18T21:59:28.547Z,19.95
2023-12-18T22:02:00.829Z,25.42
2023-12-18T22:04:32.992Z,20.20
2023-12-18T22:07:02.456Z,16.65
2023-12-18T22:09:40.181Z,19.23
2023-12-18T22:12:10.835Z,19.13
2023-12-18T22:14:40.436Z,18.67
2023-12-18T22:17:11.992Z,19.00
2023-12-18T22:19:53.690Z,23.75
2023-12-18T22:22:41.765Z,19.27
2023-12-18T22:25:23.766Z,20.23
2023-12-18T22:28:09.526Z,23.65
2023-12-18T22:30:43.054Z,18.50
2023-12-18T22:33:24.252Z,20.80
2023-12-18T22:36:16.871Z,15.90
2023-12-18T22:39:22.444Z,18.50
2023-12-18T22:41:55.392Z,31.23
2023-12-18T22:44:30.960Z,19.77
2023-12-18T22:47:03.782Z,24.80
2023-12-18T22:49:36.494Z,20.80
2023-12-18T22:52:06.128Z,19.77
2023-12-18T22:54:43.972Z,21.05
2023-12-18T22:57:15.401Z,19.85
2023-12-18T22:59:49.912Z,20.00
2023-12-18T23:02:28.113Z,17.15
2023-12-18T23:05:29.256Z,20.50
2023-12-18T23:11:12.387Z,17.42
2023-12-18T23:17:05.475Z,26.73
2023-12-18T23:23:17.354Z,17.10
2023-12-18T23:26:31.656Z,23.70
2023-12-18T23:29:59.829Z,23.98
2023-12-18T23:32:52.346Z,25.30
2023-12-18T23:35:27.511Z,20.30
2023-12-18T23:38:08.580Z,20.85
2023-12-18T23:40:50.676Z,16.67
2023-12-18T23:43:38.457Z,20.00
2023-12-18T23:46:18.605Z,19.70
2023-12-18T23:48:49.140Z,19.67
2023-12-18T23:51:37.062Z,24.48
2023-12-18T23:54:15.168Z,24.60
2023-12-18T23:56:55.929Z,23.88
2023-12-18T23:59:29.146Z,26.42
